Waumandee, Wisconsin
Current Conditions -  °F | °C
As of 2:14 PM on Saturday 20 Dec 2014 (Local Time) from KONA Reporting Station
Haze Haze  
Wind Chill: 28°   Ceiling: 1600
Heat Index: 34°   Visibility: 5mi
Dew Point: 30°   Wind: 7mph
Humidity: 87%   Direction: 120°ESE
Pressure: 30.17"   Gusts: NA
Location:  44.2495°N, 91.8243°W
Report Text: KONA 202014Z AUTO 12006KT 5SM HZ OVC016 01/M01 A3017 RMK AO2
Loading
Personal Weather Stations






























Interactive Weather Map New forecast layout! Learn more

10-Day Weather Forecast

Advertisements
Track Severe Weather on mobile